Time;durP1;ratioP1;P1;durP2;ratioP2;P2;SDS_P1;SDS_P2;PMS_P1;PMS_P2;Temp;Humidity;BMP_temperature;BMP_pressure;BME280_temperature;BME280_humidity;BME280_pressure;Samples;Min_cycle;Max_cycle;Signal;HPM_P1;HPM_P2
2021/12/22 00:01:29;;;;;;;0.30;0.30;;;-0.70;92.60;-2.50;102469.00;;;;31001127;28;20126;-68
2021/12/22 00:16:32;;;;;;;0.43;0.43;;;-0.70;92.50;-2.50;102466.00;;;;30980930;28;20689;-68
2021/12/22 00:31:41;;;;;;;0.40;0.40;;;-0.80;92.60;-2.60;102472.00;;;;31010542;28;20104;-69
2021/12/22 00:46:42;;;;;;;0.38;0.38;;;-0.80;92.60;-2.60;102468.00;;;;31013350;28;20075;-69
2021/12/22 01:01:44;;;;;;;0.30;0.30;;;-0.90;92.60;-2.60;102461.00;;;;31027185;28;20414;-70
2021/12/22 01:16:48;;;;;;;0.30;0.30;;;-0.80;93.20;-2.60;102458.00;;;;31027794;28;20053;-69
2021/12/22 01:31:50;;;;;;;0.40;0.40;;;-0.90;92.60;-2.70;102475.00;;;;30996356;28;20066;-69
2021/12/22 02:02:15;;;;;;;0.30;0.30;;;-0.90;93.20;-2.50;102463.00;;;;31014871;28;20371;-70
2021/12/22 02:17:18;;;;;;;0.50;0.50;;;-1.10;93.60;-2.30;102464.00;;;;31007984;28;20592;-69
2021/12/22 02:32:56;;;;;;;0.40;0.40;;;-0.70;93.10;-2.30;102457.00;;;;31001080;28;20100;-70
2021/12/22 02:47:40;;;;;;;0.43;0.43;;;-0.60;92.20;-2.30;102452.00;;;;31006975;28;21138;-70
2021/12/22 03:03:00;;;;;;;0.38;0.38;;;-0.60;92.30;-2.30;102465.00;;;;30998354;28;20462;-70
2021/12/22 03:18:04;;;;;;;0.32;0.32;;;-0.60;92.90;-2.30;102475.00;;;;31001579;28;20688;-70
2021/12/22 03:33:05;;;;;;;0.30;0.30;;;-0.70;92.20;-2.40;102476.00;;;;30998449;28;20042;-70
2021/12/22 03:48:06;;;;;;;0.30;0.30;;;-0.70;92.30;-2.40;102474.00;;;;31000057;28;20053;-69
2021/12/22 04:03:16;;;;;;;0.30;0.30;;;-0.70;92.30;-2.50;102464.00;;;;31029800;28;20560;-69
2021/12/22 04:18:18;;;;;;;0.40;0.40;;;-0.80;92.40;-2.50;102464.00;;;;31039624;28;20053;-70
2021/12/22 04:33:20;;;;;;;0.45;0.45;;;-0.80;92.70;-2.50;102465.00;;;;31026197;28;20074;-69
2021/12/22 04:48:21;;;;;;;0.50;0.50;;;-0.90;92.40;-2.70;102435.00;;;;31045996;28;20081;-69
2021/12/22 05:03:22;;;;;;;0.50;0.50;;;-1.00;92.30;-2.70;102420.00;;;;31020135;28;20078;-69
2021/12/22 05:18:47;;;;;;;0.40;0.40;;;-1.00;92.90;-2.80;102417.00;;;;31014805;28;20183;-69
2021/12/22 05:33:46;;;;;;;0.50;0.50;;;-0.50;93.60;-2.80;102410.00;;;;31020524;28;20050;-69
2021/12/22 05:48:48;;;;;;;0.40;0.40;;;-1.10;92.50;-2.90;102407.00;;;;31007287;28;20438;-69
2021/12/22 06:03:50;;;;;;;0.40;0.40;;;-1.20;92.50;-3.00;102386.00;;;;31009969;28;20054;-69
2021/12/22 06:18:57;;;;;;;0.30;0.30;;;-0.80;93.10;-3.10;102393.00;;;;31007083;28;20778;-69
2021/12/22 06:33:58;;;;;;;1.55;1.50;;;-1.70;92.60;-3.20;102402.00;;;;31009802;28;20119;-69
2021/12/22 06:48:59;;;;;;;0.40;0.40;;;-3.30;92.20;-3.20;102403.00;;;;31002084;28;20133;-69
2021/12/22 07:04:00;;;;;;;0.40;0.40;;;-1.50;92.90;-3.30;102425.00;;;;31002871;28;20045;-69
2021/12/22 07:19:02;;;;;;;0.40;0.40;;;-1.60;93.20;-3.40;102409.00;;;;30998264;28;20406;-69
2021/12/22 07:34:29;;;;;;;0.52;0.52;;;-1.70;92.90;-3.50;102408.00;;;;30997177;28;20128;-69
2021/12/22 07:49:30;;;;;;;0.50;0.50;;;-1.70;93.30;-3.50;102401.00;;;;31003894;28;20081;-69
2021/12/22 08:04:32;;;;;;;0.30;0.30;;;-1.70;93.20;-3.50;102381.00;;;;30995262;28;20453;-69
2021/12/22 08:19:33;;;;;;;0.30;0.30;;;-1.70;93.20;-3.40;102377.00;;;;30982516;28;20621;-69
2021/12/22 08:34:39;;;;;;;0.40;0.40;;;-1.50;93.10;-3.20;102392.00;;;;30981679;28;20580;-69
2021/12/22 08:49:40;;;;;;;0.38;0.38;;;-1.30;93.00;-3.00;102385.00;;;;31004592;28;20505;-69
2021/12/22 09:04:41;;;;;;;0.30;0.30;;;-1.20;93.10;-2.80;102378.00;;;;31012254;28;20048;-69
2021/12/22 09:19:42;;;;;;;0.40;0.40;;;-1.00;93.00;-2.60;102401.00;;;;31002743;28;20042;-69
2021/12/22 09:34:46;;;;;;;0.47;0.47;;;-0.80;92.80;-2.40;102395.00;;;;30994631;28;20300;-68
2021/12/22 09:49:59;;;;;;;0.30;0.30;;;-0.50;92.80;-2.10;102406.00;;;;31003688;28;20340;-69
2021/12/22 10:05:01;;;;;;;0.55;0.55;;;-0.40;92.70;-1.80;102387.00;;;;31015189;28;20089;-69
2021/12/22 10:20:22;;;;;;;0.40;0.40;;;-0.30;93.50;-1.50;102386.00;;;;31011303;28;20273;-70
2021/12/22 10:35:32;;;;;;;0.40;0.40;;;0.30;92.50;-1.30;102363.00;;;;30993500;28;20462;-70
2021/12/22 10:50:33;;;;;;;0.30;0.30;;;-0.90;91.90;-1.10;102352.00;;;;31018609;28;20084;-70
2021/12/22 11:05:48;;;;;;;0.30;0.30;;;0.60;92.30;-0.70;102347.00;;;;31029158;28;20034;-70
2021/12/22 11:21:28;;;;;;;0.40;0.40;;;0.80;92.60;-0.30;102320.00;;;;30995437;28;20808;-70
2021/12/22 11:36:29;;;;;;;0.40;0.40;;;1.20;91.70;0.00;102313.00;;;;30985655;28;20131;-70
2021/12/22 11:51:34;;;;;;;0.40;0.40;;;1.40;91.90;0.20;102312.00;;;;30984852;28;20057;-69
2021/12/22 12:06:50;;;;;;;0.40;0.40;;;1.60;91.10;0.40;102295.00;;;;31000690;28;20049;-70
2021/12/22 12:22:16;;;;;;;0.28;0.28;;;1.80;91.60;0.60;102276.00;;;;30997351;28;20061;-71
2021/12/22 12:38:12;;;;;;;0.45;0.45;;;2.10;90.70;0.70;102252.00;;;;31044773;28;20038;-72
2021/12/22 12:53:19;;;;;;;0.35;0.35;;;2.20;90.60;0.80;102240.00;;;;31050159;28;20541;-72
2021/12/22 13:08:20;;;;;;;0.28;0.28;;;2.30;90.80;0.70;102224.00;;;;31007234;28;20112;-72
2021/12/22 13:23:26;;;;;;;0.30;0.30;;;2.00;91.10;0.70;102211.00;;;;31013334;28;20058;-72
2021/12/22 13:38:41;;;;;;;0.20;0.20;;;2.10;90.60;0.50;102188.00;;;;31007616;28;20053;-72
2021/12/22 13:53:44;;;;;;;0.32;0.32;;;2.10;91.30;0.40;102166.00;;;;31013831;28;20774;-72
2021/12/22 14:08:47;;;;;;;0.30;0.30;;;1.80;91.10;0.30;102160.00;;;;31018165;28;20144;-71
2021/12/22 14:24:00;;;;;;;0.40;0.40;;;1.80;91.20;0.20;102148.00;;;;30999934;28;20054;-71
2021/12/22 14:39:02;;;;;;;0.40;0.40;;;1.70;91.20;0.10;102121.00;;;;30998905;28;20684;-71
2021/12/22 14:54:05;;;;;;;0.30;0.30;;;1.50;91.20;0.00;102093.00;;;;31000285;28;20065;-71
2021/12/22 15:09:08;;;;;;;0.38;0.38;;;1.40;91.30;-0.20;102093.00;;;;31004657;28;20038;-71
2021/12/22 15:24:09;;;;;;;0.30;0.30;;;1.30;91.40;-0.40;102079.00;;;;30993435;28;20056;-70
2021/12/22 15:39:10;;;;;;;0.23;0.23;;;1.10;91.50;-0.50;102058.00;;;;30989921;28;20042;-69
2021/12/22 15:54:20;;;;;;;0.30;0.30;;;0.90;91.50;-0.70;102044.00;;;;30985029;28;20342;-71
2021/12/22 16:09:21;;;;;;;0.40;0.40;;;1.00;91.60;-0.60;102036.00;;;;30999771;28;20632;-71
2021/12/22 16:24:23;;;;;;;0.40;0.40;;;1.00;91.90;-0.50;102019.00;;;;30983663;28;20532;-71
2021/12/22 16:39:24;;;;;;;0.63;0.63;;;1.00;91.40;-0.60;102007.00;;;;31019746;28;20789;-71
2021/12/22 16:54:25;;;;;;;0.40;0.40;;;1.00;91.30;-0.60;101996.00;;;;31033948;28;20705;-71
2021/12/22 17:09:26;;;;;;;0.45;0.45;;;0.90;90.90;-0.60;101974.00;;;;30982910;28;21382;-71
2021/12/22 17:24:27;;;;;;;1.10;1.10;;;0.90;90.80;-0.80;101964.00;;;;31010085;28;20509;-72
2021/12/22 17:39:29;;;;;;;0.38;0.38;;;0.80;90.80;-0.80;101958.00;;;;30991747;28;20624;-71
2021/12/22 17:54:29;;;;;;;0.45;0.45;;;0.80;90.90;-0.80;101941.00;;;;30979207;28;20046;-71
2021/12/22 18:09:31;;;;;;;0.32;0.32;;;0.80;90.80;-0.70;101945.00;;;;30991116;28;20073;-71
2021/12/22 18:24:33;;;;;;;0.30;0.30;;;0.80;91.00;-0.70;101922.00;;;;31032441;28;20100;-71
2021/12/22 18:39:34;;;;;;;0.40;0.40;;;0.90;90.60;-0.70;101896.00;;;;31023090;28;20065;-71
2021/12/22 18:54:36;;;;;;;0.40;0.40;;;1.10;91.10;-0.80;101875.00;;;;30988790;28;20108;-71
2021/12/22 19:09:37;;;;;;;0.30;0.30;;;0.70;90.50;-0.90;101856.00;;;;30990348;28;20046;-71
2021/12/22 19:24:38;;;;;;;0.30;0.30;;;0.70;91.00;-1.00;101838.00;;;;30977947;28;20053;-71
2021/12/22 19:39:39;;;;;;;0.32;0.32;;;0.60;90.50;-1.00;101830.00;;;;30998443;28;20065;-71
2021/12/22 19:54:40;;;;;;;0.50;0.50;;;0.00;91.00;-1.00;101830.00;;;;31005241;28;20055;-71
2021/12/22 20:09:42;;;;;;;1.50;1.50;;;0.60;90.50;-1.00;101800.00;;;;30981638;28;20038;-70
2021/12/22 20:24:44;;;;;;;0.40;0.40;;;0.60;90.50;-1.00;101792.00;;;;30986636;28;20050;-70
2021/12/22 20:39:45;;;;;;;0.38;0.38;;;0.50;90.40;-1.10;101790.00;;;;30983076;28;20133;-72
2021/12/22 20:54:46;;;;;;;0.40;0.40;;;0.40;90.50;-1.20;101780.00;;;;31005150;28;20555;-72
2021/12/22 21:09:50;;;;;;;0.43;0.43;;;0.40;91.20;-1.20;101763.00;;;;31024549;28;20765;-72
2021/12/22 21:24:53;;;;;;;0.38;0.38;;;0.40;91.10;-1.20;101749.00;;;;31013574;28;20054;-71
2021/12/22 21:39:54;;;;;;;0.40;0.40;;;0.90;91.00;-1.10;101722.00;;;;31002643;28;20496;-70
2021/12/22 21:54:55;;;;;;;0.60;0.60;;;0.50;90.80;-1.10;101718.00;;;;31001343;28;20522;-71
2021/12/22 22:09:57;;;;;;;0.40;0.40;;;0.40;90.90;-1.20;101670.00;;;;31004239;28;20799;-71
2021/12/22 22:24:57;;;;;;;0.30;0.30;;;0.10;91.70;-1.10;101690.00;;;;31000595;28;20457;-71
2021/12/22 22:39:59;;;;;;;0.30;0.30;;;2.70;91.60;-1.00;101680.00;;;;30994933;28;20048;-72
2021/12/22 22:55:01;;;;;;;0.40;0.40;;;0.50;91.10;-1.00;101634.00;;;;30994283;28;20516;-71
2021/12/22 23:10:02;;;;;;;0.30;0.30;;;0.60;91.10;-1.00;101636.00;;;;31012729;28;20042;-71
2021/12/22 23:25:05;;;;;;;0.40;0.40;;;1.00;91.10;-1.00;101594.00;;;;30997039;28;20045;-71
2021/12/22 23:40:20;;;;;;;0.30;0.30;;;0.60;91.10;-0.90;101598.00;;;;30992540;28;20117;-71
2021/12/22 23:55:22;;;;;;;0.50;0.50;;;0.70;90.90;-0.80;101561.00;;;;30982984;28;20061;-71
